sensor_id;sensor_type;location;lat;lon;timestamp;P1;durP1;ratioP1;P2;durP2;ratioP2
12966;SDS011;6548;49.996;8.238;2023-11-21T00:00:25;2.05;;;1.50;;
12966;SDS011;6548;49.996;8.238;2023-11-21T00:02:51;2.38;;;1.50;;
12966;SDS011;6548;49.996;8.238;2023-11-21T00:05:16;5.55;;;1.40;;
12966;SDS011;6548;49.996;8.238;2023-11-21T00:07:42;4.22;;;1.40;;
12966;SDS011;6548;49.996;8.238;2023-11-21T00:10:08;4.03;;;2.08;;
12966;SDS011;6548;49.996;8.238;2023-11-21T00:12:35;3.92;;;1.50;;
12966;SDS011;6548;49.996;8.238;2023-11-21T00:15:02;3.60;;;1.42;;
12966;SDS011;6548;49.996;8.238;2023-11-21T00:17:28;3.10;;;1.38;;
12966;SDS011;6548;49.996;8.238;2023-11-21T00:19:53;2.53;;;1.40;;
12966;SDS011;6548;49.996;8.238;2023-11-21T00:22:19;4.03;;;1.80;;
12966;SDS011;6548;49.996;8.238;2023-11-21T00:24:45;3.25;;;1.75;;
12966;SDS011;6548;49.996;8.238;2023-11-21T00:27:12;1.92;;;1.30;;
12966;SDS011;6548;49.996;8.238;2023-11-21T00:29:37;3.60;;;1.60;;
12966;SDS011;6548;49.996;8.238;2023-11-21T00:32:06;3.85;;;1.65;;
12966;SDS011;6548;49.996;8.238;2023-11-21T00:34:32;3.88;;;1.55;;
12966;SDS011;6548;49.996;8.238;2023-11-21T00:36:58;2.28;;;1.33;;
12966;SDS011;6548;49.996;8.238;2023-11-21T00:39:23;2.83;;;1.40;;
12966;SDS011;6548;49.996;8.238;2023-11-21T00:41:50;4.07;;;1.55;;
12966;SDS011;6548;49.996;8.238;2023-11-21T00:44:16;4.03;;;1.73;;
12966;SDS011;6548;49.996;8.238;2023-11-21T00:46:41;3.78;;;1.58;;
12966;SDS011;6548;49.996;8.238;2023-11-21T00:49:07;4.70;;;1.80;;
12966;SDS011;6548;49.996;8.238;2023-11-21T00:51:33;3.05;;;1.48;;
12966;SDS011;6548;49.996;8.238;2023-11-21T00:53:58;4.55;;;1.50;;
12966;SDS011;6548;49.996;8.238;2023-11-21T00:56:24;5.40;;;2.30;;
12966;SDS011;6548;49.996;8.238;2023-11-21T00:58:50;4.00;;;1.63;;
12966;SDS011;6548;49.996;8.238;2023-11-21T01:01:17;2.05;;;1.85;;
12966;SDS011;6548;49.996;8.238;2023-11-21T01:03:48;3.25;;;1.95;;
12966;SDS011;6548;49.996;8.238;2023-11-21T01:06:14;3.28;;;1.63;;
12966;SDS011;6548;49.996;8.238;2023-11-21T01:08:39;2.15;;;1.50;;
12966;SDS011;6548;49.996;8.238;2023-11-21T01:11:05;4.53;;;1.70;;
12966;SDS011;6548;49.996;8.238;2023-11-21T01:13:33;2.08;;;1.77;;
12966;SDS011;6548;49.996;8.238;2023-11-21T01:16:00;2.45;;;1.85;;
12966;SDS011;6548;49.996;8.238;2023-11-21T01:18:25;2.50;;;2.03;;
12966;SDS011;6548;49.996;8.238;2023-11-21T01:20:51;2.47;;;1.88;;
12966;SDS011;6548;49.996;8.238;2023-11-21T01:23:18;4.18;;;2.33;;
12966;SDS011;6548;49.996;8.238;2023-11-21T01:25:44;3.70;;;1.90;;
12966;SDS011;6548;49.996;8.238;2023-11-21T01:28:10;3.88;;;2.08;;
12966;SDS011;6548;49.996;8.238;2023-11-21T01:30:35;4.60;;;2.40;;
12966;SDS011;6548;49.996;8.238;2023-11-21T01:33:02;5.25;;;2.22;;
12966;SDS011;6548;49.996;8.238;2023-11-21T01:35:28;2.20;;;1.67;;
12966;SDS011;6548;49.996;8.238;2023-11-21T01:37:53;3.03;;;1.98;;
12966;SDS011;6548;49.996;8.238;2023-11-21T01:40:19;3.42;;;1.85;;
12966;SDS011;6548;49.996;8.238;2023-11-21T01:42:44;3.50;;;1.98;;
12966;SDS011;6548;49.996;8.238;2023-11-21T01:45:12;3.45;;;2.55;;
12966;SDS011;6548;49.996;8.238;2023-11-21T01:47:37;4.68;;;1.98;;
12966;SDS011;6548;49.996;8.238;2023-11-21T01:50:03;4.15;;;2.30;;
12966;SDS011;6548;49.996;8.238;2023-11-21T01:52:31;3.10;;;2.30;;
12966;SDS011;6548;49.996;8.238;2023-11-21T01:54:58;5.40;;;3.15;;
12966;SDS011;6548;49.996;8.238;2023-11-21T01:57:25;6.45;;;4.18;;
12966;SDS011;6548;49.996;8.238;2023-11-21T01:59:50;4.40;;;3.33;;
12966;SDS011;6548;49.996;8.238;2023-11-21T02:02:18;6.78;;;3.97;;
12966;SDS011;6548;49.996;8.238;2023-11-21T02:04:45;6.75;;;4.40;;
12966;SDS011;6548;49.996;8.238;2023-11-21T02:07:10;7.55;;;4.50;;
12966;SDS011;6548;49.996;8.238;2023-11-21T02:09:36;6.90;;;4.70;;
12966;SDS011;6548;49.996;8.238;2023-11-21T02:12:07;7.35;;;4.40;;
12966;SDS011;6548;49.996;8.238;2023-11-21T02:14:35;8.25;;;5.10;;
12966;SDS011;6548;49.996;8.238;2023-11-21T02:17:01;9.52;;;5.25;;
12966;SDS011;6548;49.996;8.238;2023-11-21T02:19:28;9.15;;;5.47;;
12966;SDS011;6548;49.996;8.238;2023-11-21T02:21:54;7.80;;;5.20;;
12966;SDS011;6548;49.996;8.238;2023-11-21T02:24:24;7.70;;;4.30;;
12966;SDS011;6548;49.996;8.238;2023-11-21T02:26:50;7.13;;;4.47;;
12966;SDS011;6548;49.996;8.238;2023-11-21T02:29:20;6.78;;;4.20;;
12966;SDS011;6548;49.996;8.238;2023-11-21T02:31:53;8.00;;;4.03;;
12966;SDS011;6548;49.996;8.238;2023-11-21T02:34:19;4.13;;;3.28;;
12966;SDS011;6548;49.996;8.238;2023-11-21T02:36:46;8.05;;;4.53;;
12966;SDS011;6548;49.996;8.238;2023-11-21T02:39:14;5.43;;;3.47;;
12966;SDS011;6548;49.996;8.238;2023-11-21T02:41:40;6.25;;;3.55;;
12966;SDS011;6548;49.996;8.238;2023-11-21T02:44:05;4.43;;;3.33;;
12966;SDS011;6548;49.996;8.238;2023-11-21T02:46:32;4.88;;;3.90;;
12966;SDS011;6548;49.996;8.238;2023-11-21T02:48:59;5.43;;;3.38;;
12966;SDS011;6548;49.996;8.238;2023-11-21T02:51:25;7.55;;;3.88;;
12966;SDS011;6548;49.996;8.238;2023-11-21T02:53:51;5.55;;;3.75;;
12966;SDS011;6548;49.996;8.238;2023-11-21T02:56:17;5.30;;;3.90;;
12966;SDS011;6548;49.996;8.238;2023-11-21T02:58:43;8.10;;;4.85;;
12966;SDS011;6548;49.996;8.238;2023-11-21T03:01:09;8.57;;;3.65;;
12966;SDS011;6548;49.996;8.238;2023-11-21T03:03:36;8.77;;;4.40;;
12966;SDS011;6548;49.996;8.238;2023-11-21T03:06:05;7.50;;;4.70;;
12966;SDS011;6548;49.996;8.238;2023-11-21T03:08:31;9.80;;;4.68;;
12966;SDS011;6548;49.996;8.238;2023-11-21T03:10:57;7.10;;;4.68;;
12966;SDS011;6548;49.996;8.238;2023-11-21T03:13:23;7.60;;;5.18;;
12966;SDS011;6548;49.996;8.238;2023-11-21T03:15:49;8.13;;;5.05;;
12966;SDS011;6548;49.996;8.238;2023-11-21T03:18:14;9.80;;;5.32;;
12966;SDS011;6548;49.996;8.238;2023-11-21T03:20:40;7.95;;;4.70;;
12966;SDS011;6548;49.996;8.238;2023-11-21T03:23:06;6.70;;;4.50;;
12966;SDS011;6548;49.996;8.238;2023-11-21T03:25:32;6.45;;;4.55;;
12966;SDS011;6548;49.996;8.238;2023-11-21T03:27:57;8.00;;;4.68;;
12966;SDS011;6548;49.996;8.238;2023-11-21T03:30:23;8.55;;;4.82;;
12966;SDS011;6548;49.996;8.238;2023-11-21T03:32:48;7.32;;;5.47;;
12966;SDS011;6548;49.996;8.238;2023-11-21T03:35:14;8.43;;;4.28;;
12966;SDS011;6548;49.996;8.238;2023-11-21T03:37:39;8.13;;;4.20;;
12966;SDS011;6548;49.996;8.238;2023-11-21T03:40:06;6.50;;;4.55;;
12966;SDS011;6548;49.996;8.238;2023-11-21T03:42:34;7.75;;;4.65;;
12966;SDS011;6548;49.996;8.238;2023-11-21T03:44:59;6.20;;;4.43;;
12966;SDS011;6548;49.996;8.238;2023-11-21T03:47:26;6.28;;;3.97;;
12966;SDS011;6548;49.996;8.238;2023-11-21T03:49:53;6.78;;;4.32;;
12966;SDS011;6548;49.996;8.238;2023-11-21T03:52:18;6.65;;;4.38;;
12966;SDS011;6548;49.996;8.238;2023-11-21T03:54:44;6.82;;;4.25;;
12966;SDS011;6548;49.996;8.238;2023-11-21T03:57:10;5.80;;;3.95;;
12966;SDS011;6548;49.996;8.238;2023-11-21T03:59:36;8.30;;;4.80;;
12966;SDS011;6548;49.996;8.238;2023-11-21T04:02:05;8.60;;;4.65;;
12966;SDS011;6548;49.996;8.238;2023-11-21T04:04:32;6.10;;;3.95;;
12966;SDS011;6548;49.996;8.238;2023-11-21T04:06:58;7.20;;;4.55;;
12966;SDS011;6548;49.996;8.238;2023-11-21T04:09:24;10.32;;;4.78;;
12966;SDS011;6548;49.996;8.238;2023-11-21T04:11:50;7.30;;;4.95;;
12966;SDS011;6548;49.996;8.238;2023-11-21T04:14:16;6.93;;;4.88;;
12966;SDS011;6548;49.996;8.238;2023-11-21T04:16:42;7.93;;;4.90;;
12966;SDS011;6548;49.996;8.238;2023-11-21T04:19:08;6.68;;;4.72;;
12966;SDS011;6548;49.996;8.238;2023-11-21T04:21:39;7.57;;;4.47;;
12966;SDS011;6548;49.996;8.238;2023-11-21T04:24:06;7.82;;;4.47;;
12966;SDS011;6548;49.996;8.238;2023-11-21T04:26:32;7.93;;;5.15;;
12966;SDS011;6548;49.996;8.238;2023-11-21T04:28:57;7.63;;;4.63;;
12966;SDS011;6548;49.996;8.238;2023-11-21T04:31:23;6.93;;;4.60;;
12966;SDS011;6548;49.996;8.238;2023-11-21T04:33:49;7.43;;;4.05;;
12966;SDS011;6548;49.996;8.238;2023-11-21T04:36:14;5.80;;;3.80;;
12966;SDS011;6548;49.996;8.238;2023-11-21T04:38:40;5.10;;;4.10;;
12966;SDS011;6548;49.996;8.238;2023-11-21T04:41:06;5.38;;;3.47;;
12966;SDS011;6548;49.996;8.238;2023-11-21T04:43:32;5.22;;;4.00;;
12966;SDS011;6548;49.996;8.238;2023-11-21T04:45:57;4.20;;;3.17;;
12966;SDS011;6548;49.996;8.238;2023-11-21T04:48:23;5.50;;;3.40;;
12966;SDS011;6548;49.996;8.238;2023-11-21T04:50:48;4.93;;;3.10;;
12966;SDS011;6548;49.996;8.238;2023-11-21T04:53:14;4.65;;;2.72;;
12966;SDS011;6548;49.996;8.238;2023-11-21T04:55:40;10.95;;;4.10;;
12966;SDS011;6548;49.996;8.238;2023-11-21T04:58:06;4.28;;;2.80;;
12966;SDS011;6548;49.996;8.238;2023-11-21T05:00:33;3.13;;;2.53;;
12966;SDS011;6548;49.996;8.238;2023-11-21T05:02:58;3.67;;;2.70;;
12966;SDS011;6548;49.996;8.238;2023-11-21T05:05:26;4.57;;;3.28;;
12966;SDS011;6548;49.996;8.238;2023-11-21T05:07:51;3.58;;;2.40;;
12966;SDS011;6548;49.996;8.238;2023-11-21T05:10:18;4.40;;;3.15;;
12966;SDS011;6548;49.996;8.238;2023-11-21T05:12:44;3.70;;;2.80;;
12966;SDS011;6548;49.996;8.238;2023-11-21T05:15:12;3.85;;;2.95;;
12966;SDS011;6548;49.996;8.238;2023-11-21T05:17:39;4.80;;;3.42;;
12966;SDS011;6548;49.996;8.238;2023-11-21T05:20:15;6.32;;;3.13;;
12966;SDS011;6548;49.996;8.238;2023-11-21T05:22:48;5.03;;;3.03;;
12966;SDS011;6548;49.996;8.238;2023-11-21T05:25:14;5.05;;;3.45;;
12966;SDS011;6548;49.996;8.238;2023-11-21T05:27:40;4.53;;;2.83;;
12966;SDS011;6548;49.996;8.238;2023-11-21T05:30:06;4.15;;;3.10;;
12966;SDS011;6548;49.996;8.238;2023-11-21T05:32:32;4.30;;;2.95;;
12966;SDS011;6548;49.996;8.238;2023-11-21T05:34:58;4.47;;;3.03;;
12966;SDS011;6548;49.996;8.238;2023-11-21T05:37:24;5.55;;;3.53;;
12966;SDS011;6548;49.996;8.238;2023-11-21T05:39:51;5.15;;;3.08;;
12966;SDS011;6548;49.996;8.238;2023-11-21T05:42:23;5.80;;;3.30;;
12966;SDS011;6548;49.996;8.238;2023-11-21T05:44:49;7.43;;;3.70;;
12966;SDS011;6548;49.996;8.238;2023-11-21T05:47:14;6.70;;;3.70;;
12966;SDS011;6548;49.996;8.238;2023-11-21T05:49:40;4.93;;;3.30;;
12966;SDS011;6548;49.996;8.238;2023-11-21T05:52:05;10.63;;;3.80;;
12966;SDS011;6548;49.996;8.238;2023-11-21T05:54:31;7.03;;;3.92;;
12966;SDS011;6548;49.996;8.238;2023-11-21T05:56:57;5.38;;;3.35;;
12966;SDS011;6548;49.996;8.238;2023-11-21T05:59:23;6.80;;;3.63;;
12966;SDS011;6548;49.996;8.238;2023-11-21T06:01:49;5.47;;;3.22;;
12966;SDS011;6548;49.996;8.238;2023-11-21T06:04:14;5.20;;;3.10;;
12966;SDS011;6548;49.996;8.238;2023-11-21T06:06:40;5.53;;;3.53;;
12966;SDS011;6548;49.996;8.238;2023-11-21T06:09:06;5.55;;;3.63;;
12966;SDS011;6548;49.996;8.238;2023-11-21T06:11:34;5.57;;;3.88;;
12966;SDS011;6548;49.996;8.238;2023-11-21T06:14:00;5.85;;;3.47;;
12966;SDS011;6548;49.996;8.238;2023-11-21T06:16:25;4.82;;;3.88;;
12966;SDS011;6548;49.996;8.238;2023-11-21T06:18:52;7.20;;;3.80;;
12966;SDS011;6548;49.996;8.238;2023-11-21T06:21:18;6.40;;;3.72;;
12966;SDS011;6548;49.996;8.238;2023-11-21T06:23:43;5.22;;;3.50;;
12966;SDS011;6548;49.996;8.238;2023-11-21T06:26:09;10.13;;;4.43;;
12966;SDS011;6548;49.996;8.238;2023-11-21T06:28:35;6.78;;;3.50;;
12966;SDS011;6548;49.996;8.238;2023-11-21T06:31:03;9.25;;;4.25;;
12966;SDS011;6548;49.996;8.238;2023-11-21T06:33:33;8.50;;;5.03;;
12966;SDS011;6548;49.996;8.238;2023-11-21T06:35:59;7.28;;;4.07;;
12966;SDS011;6548;49.996;8.238;2023-11-21T06:38:28;9.00;;;4.03;;
12966;SDS011;6548;49.996;8.238;2023-11-21T06:40:55;7.30;;;4.00;;
12966;SDS011;6548;49.996;8.238;2023-11-21T06:43:21;7.47;;;4.28;;
12966;SDS011;6548;49.996;8.238;2023-11-21T06:45:47;6.53;;;3.30;;
12966;SDS011;6548;49.996;8.238;2023-11-21T06:48:12;5.55;;;3.13;;
12966;SDS011;6548;49.996;8.238;2023-11-21T06:50:38;8.13;;;4.00;;
12966;SDS011;6548;49.996;8.238;2023-11-21T06:53:03;6.78;;;3.50;;
12966;SDS011;6548;49.996;8.238;2023-11-21T06:55:31;6.28;;;3.72;;
12966;SDS011;6548;49.996;8.238;2023-11-21T06:57:57;10.90;;;4.25;;
12966;SDS011;6548;49.996;8.238;2023-11-21T07:00:23;7.75;;;4.25;;
12966;SDS011;6548;49.996;8.238;2023-11-21T07:02:49;6.85;;;3.63;;
12966;SDS011;6548;49.996;8.238;2023-11-21T07:05:14;6.57;;;3.80;;
12966;SDS011;6548;49.996;8.238;2023-11-21T07:07:40;5.43;;;3.63;;
12966;SDS011;6548;49.996;8.238;2023-11-21T07:10:06;7.00;;;3.70;;
12966;SDS011;6548;49.996;8.238;2023-11-21T07:12:33;4.35;;;3.42;;
12966;SDS011;6548;49.996;8.238;2023-11-21T07:14:59;6.25;;;4.20;;
12966;SDS011;6548;49.996;8.238;2023-11-21T07:17:24;6.63;;;3.50;;
12966;SDS011;6548;49.996;8.238;2023-11-21T07:19:50;6.03;;;3.75;;
12966;SDS011;6548;49.996;8.238;2023-11-21T07:22:16;7.72;;;3.75;;
12966;SDS011;6548;49.996;8.238;2023-11-21T07:24:49;6.20;;;3.33;;
12966;SDS011;6548;49.996;8.238;2023-11-21T07:27:15;6.40;;;4.03;;
12966;SDS011;6548;49.996;8.238;2023-11-21T07:29:41;5.63;;;4.07;;
12966;SDS011;6548;49.996;8.238;2023-11-21T07:32:07;5.65;;;3.75;;
12966;SDS011;6548;49.996;8.238;2023-11-21T07:34:34;5.43;;;3.50;;
12966;SDS011;6548;49.996;8.238;2023-11-21T07:37:00;6.05;;;3.47;;
12966;SDS011;6548;49.996;8.238;2023-11-21T07:39:26;6.18;;;3.85;;
12966;SDS011;6548;49.996;8.238;2023-11-21T07:41:52;7.80;;;3.90;;
12966;SDS011;6548;49.996;8.238;2023-11-21T07:44:17;5.47;;;4.10;;
12966;SDS011;6548;49.996;8.238;2023-11-21T07:46:44;7.20;;;3.53;;
12966;SDS011;6548;49.996;8.238;2023-11-21T07:49:10;7.28;;;4.35;;
12966;SDS011;6548;49.996;8.238;2023-11-21T07:51:36;7.53;;;4.15;;
12966;SDS011;6548;49.996;8.238;2023-11-21T07:54:01;6.30;;;4.18;;
12966;SDS011;6548;49.996;8.238;2023-11-21T07:56:27;6.78;;;3.90;;
12966;SDS011;6548;49.996;8.238;2023-11-21T07:58:52;4.82;;;3.20;;
12966;SDS011;6548;49.996;8.238;2023-11-21T08:01:18;7.90;;;4.57;;
12966;SDS011;6548;49.996;8.238;2023-11-21T08:03:44;6.30;;;3.78;;
12966;SDS011;6548;49.996;8.238;2023-11-21T08:06:09;6.53;;;3.95;;
12966;SDS011;6548;49.996;8.238;2023-11-21T08:08:35;8.27;;;4.30;;
12966;SDS011;6548;49.996;8.238;2023-11-21T08:11:01;5.72;;;3.95;;
12966;SDS011;6548;49.996;8.238;2023-11-21T08:13:29;4.93;;;3.72;;
12966;SDS011;6548;49.996;8.238;2023-11-21T08:15:57;6.53;;;4.20;;
12966;SDS011;6548;49.996;8.238;2023-11-21T08:18:27;5.68;;;3.60;;
12966;SDS011;6548;49.996;8.238;2023-11-21T08:20:54;5.70;;;3.40;;
12966;SDS011;6548;49.996;8.238;2023-11-21T08:23:20;5.78;;;3.97;;
12966;SDS011;6548;49.996;8.238;2023-11-21T08:25:46;4.20;;;3.30;;
12966;SDS011;6548;49.996;8.238;2023-11-21T08:28:12;5.15;;;3.00;;
12966;SDS011;6548;49.996;8.238;2023-11-21T08:30:39;4.35;;;2.72;;
12966;SDS011;6548;49.996;8.238;2023-11-21T08:33:06;5.65;;;3.65;;
12966;SDS011;6548;49.996;8.238;2023-11-21T08:35:33;3.92;;;2.92;;
12966;SDS011;6548;49.996;8.238;2023-11-21T08:37:59;6.78;;;3.70;;
12966;SDS011;6548;49.996;8.238;2023-11-21T08:40:25;5.78;;;3.60;;
12966;SDS011;6548;49.996;8.238;2023-11-21T08:42:51;8.80;;;3.92;;
12966;SDS011;6548;49.996;8.238;2023-11-21T08:45:17;8.85;;;3.63;;
12966;SDS011;6548;49.996;8.238;2023-11-21T08:47:43;8.63;;;4.18;;
12966;SDS011;6548;49.996;8.238;2023-11-21T08:50:09;7.57;;;3.40;;
12966;SDS011;6548;49.996;8.238;2023-11-21T08:52:37;8.75;;;3.85;;
12966;SDS011;6548;49.996;8.238;2023-11-21T08:55:03;6.35;;;3.80;;
12966;SDS011;6548;49.996;8.238;2023-11-21T08:57:33;6.18;;;3.42;;
12966;SDS011;6548;49.996;8.238;2023-11-21T09:00:00;4.13;;;3.08;;
12966;SDS011;6548;49.996;8.238;2023-11-21T09:02:26;5.13;;;3.90;;
12966;SDS011;6548;49.996;8.238;2023-11-21T09:04:52;4.13;;;3.70;;
12966;SDS011;6548;49.996;8.238;2023-11-21T09:07:18;5.22;;;3.85;;
12966;SDS011;6548;49.996;8.238;2023-11-21T09:09:45;6.07;;;4.22;;
12966;SDS011;6548;49.996;8.238;2023-11-21T09:12:11;5.18;;;3.25;;
12966;SDS011;6548;49.996;8.238;2023-11-21T09:14:37;6.25;;;2.90;;
12966;SDS011;6548;49.996;8.238;2023-11-21T09:17:03;5.25;;;3.10;;
12966;SDS011;6548;49.996;8.238;2023-11-21T09:19:29;4.60;;;2.30;;
12966;SDS011;6548;49.996;8.238;2023-11-21T09:21:54;5.10;;;2.60;;
12966;SDS011;6548;49.996;8.238;2023-11-21T09:24:22;4.28;;;2.53;;
12966;SDS011;6548;49.996;8.238;2023-11-21T09:26:47;4.28;;;2.50;;
12966;SDS011;6548;49.996;8.238;2023-11-21T09:29:13;5.80;;;2.65;;
12966;SDS011;6548;49.996;8.238;2023-11-21T09:31:38;5.20;;;2.75;;
12966;SDS011;6548;49.996;8.238;2023-11-21T09:34:04;3.75;;;2.67;;
12966;SDS011;6548;49.996;8.238;2023-11-21T09:36:31;5.78;;;2.67;;
12966;SDS011;6548;49.996;8.238;2023-11-21T09:38:58;3.75;;;2.35;;
12966;SDS011;6548;49.996;8.238;2023-11-21T09:41:31;5.50;;;2.28;;
12966;SDS011;6548;49.996;8.238;2023-11-21T09:44:04;5.35;;;3.35;;
12966;SDS011;6548;49.996;8.238;2023-11-21T09:46:36;3.95;;;2.45;;
12966;SDS011;6548;49.996;8.238;2023-11-21T09:49:04;5.28;;;2.47;;
12966;SDS011;6548;49.996;8.238;2023-11-21T09:51:36;5.05;;;2.90;;
12966;SDS011;6548;49.996;8.238;2023-11-21T09:54:05;4.65;;;2.72;;
12966;SDS011;6548;49.996;8.238;2023-11-21T09:56:33;4.22;;;2.42;;
12966;SDS011;6548;49.996;8.238;2023-11-21T09:59:00;4.78;;;2.70;;
12966;SDS011;6548;49.996;8.238;2023-11-21T10:01:31;3.72;;;2.83;;
12966;SDS011;6548;49.996;8.238;2023-11-21T10:03:58;6.18;;;2.60;;
12966;SDS011;6548;49.996;8.238;2023-11-21T10:06:24;4.47;;;2.30;;
12966;SDS011;6548;49.996;8.238;2023-11-21T10:08:51;4.32;;;2.65;;
12966;SDS011;6548;49.996;8.238;2023-11-21T10:11:21;3.45;;;2.47;;
12966;SDS011;6548;49.996;8.238;2023-11-21T10:13:52;7.75;;;2.88;;
12966;SDS011;6548;49.996;8.238;2023-11-21T10:16:19;7.40;;;4.15;;
12966;SDS011;6548;49.996;8.238;2023-11-21T10:18:48;7.85;;;2.95;;
12966;SDS011;6548;49.996;8.238;2023-11-21T10:21:20;6.05;;;2.95;;
12966;SDS011;6548;49.996;8.238;2023-11-21T10:23:46;8.60;;;3.63;;
12966;SDS011;6548;49.996;8.238;2023-11-21T10:26:12;6.38;;;3.72;;
12966;SDS011;6548;49.996;8.238;2023-11-21T10:29:02;5.63;;;3.00;;
12966;SDS011;6548;49.996;8.238;2023-11-21T10:31:31;5.18;;;3.03;;
12966;SDS011;6548;49.996;8.238;2023-11-21T10:34:11;5.97;;;2.53;;
12966;SDS011;6548;49.996;8.238;2023-11-21T10:36:38;7.10;;;3.73;;
12966;SDS011;6548;49.996;8.238;2023-11-21T10:39:03;6.78;;;2.65;;
12966;SDS011;6548;49.996;8.238;2023-11-21T10:41:29;5.03;;;2.47;;
12966;SDS011;6548;49.996;8.238;2023-11-21T10:43:55;4.75;;;2.35;;
12966;SDS011;6548;49.996;8.238;2023-11-21T10:46:21;6.88;;;2.80;;
12966;SDS011;6548;49.996;8.238;2023-11-21T10:48:51;4.55;;;2.78;;
12966;SDS011;6548;49.996;8.238;2023-11-21T10:51:20;4.75;;;2.30;;
12966;SDS011;6548;49.996;8.238;2023-11-21T10:53:46;3.78;;;1.77;;
12966;SDS011;6548;49.996;8.238;2023-11-21T10:56:12;3.67;;;1.83;;
12966;SDS011;6548;49.996;8.238;2023-11-21T10:58:44;3.00;;;1.88;;
12966;SDS011;6548;49.996;8.238;2023-11-21T11:01:11;4.28;;;1.90;;
12966;SDS011;6548;49.996;8.238;2023-11-21T11:03:39;4.00;;;1.60;;
12966;SDS011;6548;49.996;8.238;2023-11-21T11:06:06;4.15;;;1.80;;
12966;SDS011;6548;49.996;8.238;2023-11-21T11:08:41;4.95;;;1.90;;
12966;SDS011;6548;49.996;8.238;2023-11-21T11:11:07;4.88;;;2.10;;
12966;SDS011;6548;49.996;8.238;2023-11-21T11:13:35;4.35;;;2.30;;
12966;SDS011;6548;49.996;8.238;2023-11-21T11:16:02;6.57;;;2.22;;
12966;SDS011;6548;49.996;8.238;2023-11-21T11:18:32;8.65;;;2.55;;
12966;SDS011;6548;49.996;8.238;2023-11-21T11:21:07;6.38;;;2.92;;
12966;SDS011;6548;49.996;8.238;2023-11-21T11:24:11;4.38;;;2.40;;
12966;SDS011;6548;49.996;8.238;2023-11-21T11:26:56;5.60;;;3.10;;
12966;SDS011;6548;49.996;8.238;2023-11-21T11:32:21;7.20;;;2.75;;
12966;SDS011;6548;49.996;8.238;2023-11-21T11:35:19;3.63;;;3.03;;
12966;SDS011;6548;49.996;8.238;2023-11-21T11:37:54;4.97;;;2.47;;
12966;SDS011;6548;49.996;8.238;2023-11-21T11:40:20;7.97;;;3.42;;
12966;SDS011;6548;49.996;8.238;2023-11-21T11:42:57;5.97;;;3.40;;
12966;SDS011;6548;49.996;8.238;2023-11-21T11:45:24;7.80;;;3.28;;
12966;SDS011;6548;49.996;8.238;2023-11-21T11:47:56;8.57;;;4.10;;
12966;SDS011;6548;49.996;8.238;2023-11-21T11:50:22;5.30;;;2.65;;
12966;SDS011;6548;49.996;8.238;2023-11-21T11:52:50;4.55;;;2.45;;
12966;SDS011;6548;49.996;8.238;2023-11-21T11:55:24;5.72;;;2.85;;
12966;SDS011;6548;49.996;8.238;2023-11-21T11:57:51;7.28;;;3.00;;
12966;SDS011;6548;49.996;8.238;2023-11-21T12:03:05;5.03;;;2.40;;
12966;SDS011;6548;49.996;8.238;2023-11-21T12:05:32;3.70;;;1.65;;
12966;SDS011;6548;49.996;8.238;2023-11-21T12:08:03;8.00;;;3.72;;
12966;SDS011;6548;49.996;8.238;2023-11-21T12:10:31;6.28;;;2.83;;
12966;SDS011;6548;49.996;8.238;2023-11-21T12:12:59;3.80;;;1.95;;
12966;SDS011;6548;49.996;8.238;2023-11-21T12:15:26;3.50;;;1.73;;
12966;SDS011;6548;49.996;8.238;2023-11-21T12:17:55;5.53;;;2.17;;
12966;SDS011;6548;49.996;8.238;2023-11-21T12:20:22;3.33;;;1.75;;
12966;SDS011;6548;49.996;8.238;2023-11-21T12:22:49;6.63;;;2.45;;
12966;SDS011;6548;49.996;8.238;2023-11-21T12:25:27;4.93;;;2.00;;
12966;SDS011;6548;49.996;8.238;2023-11-21T12:27:54;5.95;;;2.10;;
12966;SDS011;6548;49.996;8.238;2023-11-21T12:30:22;2.45;;;1.83;;
12966;SDS011;6548;49.996;8.238;2023-11-21T12:32:49;3.20;;;1.70;;
12966;SDS011;6548;49.996;8.238;2023-11-21T12:35:17;3.88;;;2.08;;
12966;SDS011;6548;49.996;8.238;2023-11-21T12:37:47;4.68;;;2.05;;
12966;SDS011;6548;49.996;8.238;2023-11-21T12:40:13;3.70;;;2.58;;
12966;SDS011;6548;49.996;8.238;2023-11-21T12:43:01;8.32;;;2.40;;
12966;SDS011;6548;49.996;8.238;2023-11-21T12:45:29;2.78;;;1.98;;
12966;SDS011;6548;49.996;8.238;2023-11-21T12:47:59;7.13;;;2.00;;
12966;SDS011;6548;49.996;8.238;2023-11-21T12:50:29;3.45;;;1.65;;
12966;SDS011;6548;49.996;8.238;2023-11-21T12:52:59;3.67;;;2.05;;
12966;SDS011;6548;49.996;8.238;2023-11-21T12:55:29;5.45;;;2.35;;
12966;SDS011;6548;49.996;8.238;2023-11-21T12:58:01;3.00;;;2.63;;
12966;SDS011;6548;49.996;8.238;2023-11-21T13:00:42;3.45;;;2.30;;
12966;SDS011;6548;49.996;8.238;2023-11-21T13:03:11;3.80;;;2.22;;
12966;SDS011;6548;49.996;8.238;2023-11-21T13:05:40;6.70;;;2.50;;
12966;SDS011;6548;49.996;8.238;2023-11-21T13:08:15;8.40;;;2.85;;
12966;SDS011;6548;49.996;8.238;2023-11-21T13:10:44;3.45;;;2.20;;
12966;SDS011;6548;49.996;8.238;2023-11-21T13:13:13;3.83;;;2.17;;
12966;SDS011;6548;49.996;8.238;2023-11-21T13:15:55;3.80;;;2.70;;
12966;SDS011;6548;49.996;8.238;2023-11-21T13:18:31;4.78;;;2.47;;
12966;SDS011;6548;49.996;8.238;2023-11-21T13:20:58;4.72;;;3.00;;
12966;SDS011;6548;49.996;8.238;2023-11-21T13:23:25;5.68;;;2.83;;
12966;SDS011;6548;49.996;8.238;2023-11-21T13:25:51;6.55;;;3.47;;
12966;SDS011;6548;49.996;8.238;2023-11-21T13:28:18;4.50;;;3.03;;
12966;SDS011;6548;49.996;8.238;2023-11-21T13:30:46;8.82;;;3.65;;
12966;SDS011;6548;49.996;8.238;2023-11-21T13:33:13;6.22;;;3.10;;
12966;SDS011;6548;49.996;8.238;2023-11-21T13:35:42;6.15;;;3.20;;
12966;SDS011;6548;49.996;8.238;2023-11-21T13:38:16;7.15;;;3.33;;
12966;SDS011;6548;49.996;8.238;2023-11-21T13:40:46;4.13;;;2.67;;
12966;SDS011;6548;49.996;8.238;2023-11-21T13:43:15;4.93;;;3.13;;
12966;SDS011;6548;49.996;8.238;2023-11-21T13:45:45;5.78;;;3.15;;
12966;SDS011;6548;49.996;8.238;2023-11-21T13:48:12;7.00;;;3.67;;
12966;SDS011;6548;49.996;8.238;2023-11-21T13:50:45;6.00;;;3.58;;
12966;SDS011;6548;49.996;8.238;2023-11-21T13:55:53;6.47;;;3.60;;
12966;SDS011;6548;49.996;8.238;2023-11-21T13:58:19;5.65;;;3.83;;
12966;SDS011;6548;49.996;8.238;2023-11-21T14:01:00;8.30;;;3.78;;
12966;SDS011;6548;49.996;8.238;2023-11-21T14:03:26;6.00;;;3.97;;
12966;SDS011;6548;49.996;8.238;2023-11-21T14:06:04;7.28;;;3.85;;
12966;SDS011;6548;49.996;8.238;2023-11-21T14:08:39;10.68;;;4.18;;
12966;SDS011;6548;49.996;8.238;2023-11-21T14:11:05;6.72;;;3.88;;
12966;SDS011;6548;49.996;8.238;2023-11-21T14:13:31;10.30;;;4.68;;
12966;SDS011;6548;49.996;8.238;2023-11-21T14:15:57;7.18;;;4.15;;
12966;SDS011;6548;49.996;8.238;2023-11-21T14:18:24;6.20;;;3.38;;
12966;SDS011;6548;49.996;8.238;2023-11-21T14:20:56;6.70;;;3.30;;
12966;SDS011;6548;49.996;8.238;2023-11-21T14:23:22;6.70;;;3.30;;
12966;SDS011;6548;49.996;8.238;2023-11-21T14:25:48;7.25;;;3.70;;
12966;SDS011;6548;49.996;8.238;2023-11-21T14:28:14;6.93;;;3.45;;
12966;SDS011;6548;49.996;8.238;2023-11-21T14:30:40;6.50;;;3.92;;
12966;SDS011;6548;49.996;8.238;2023-11-21T14:33:07;6.20;;;3.60;;
12966;SDS011;6548;49.996;8.238;2023-11-21T14:35:34;6.72;;;4.85;;
12966;SDS011;6548;49.996;8.238;2023-11-21T14:38:00;6.50;;;3.72;;
12966;SDS011;6548;49.996;8.238;2023-11-21T14:40:27;7.60;;;4.18;;
12966;SDS011;6548;49.996;8.238;2023-11-21T14:42:57;6.60;;;3.70;;
12966;SDS011;6548;49.996;8.238;2023-11-21T14:45:24;6.22;;;4.25;;
12966;SDS011;6548;49.996;8.238;2023-11-21T14:47:51;8.18;;;3.72;;
12966;SDS011;6548;49.996;8.238;2023-11-21T14:50:32;8.13;;;3.90;;
12966;SDS011;6548;49.996;8.238;2023-11-21T14:53:11;9.02;;;4.15;;
12966;SDS011;6548;49.996;8.238;2023-11-21T14:55:40;4.30;;;3.00;;
12966;SDS011;6548;49.996;8.238;2023-11-21T14:58:06;6.93;;;4.28;;
12966;SDS011;6548;49.996;8.238;2023-11-21T15:00:37;6.43;;;4.20;;
12966;SDS011;6548;49.996;8.238;2023-11-21T15:03:03;9.68;;;4.70;;
12966;SDS011;6548;49.996;8.238;2023-11-21T15:05:29;8.57;;;4.22;;
12966;SDS011;6548;49.996;8.238;2023-11-21T15:07:55;8.50;;;4.03;;
12966;SDS011;6548;49.996;8.238;2023-11-21T15:10:23;9.80;;;3.47;;